Terminal Aerodrome Forecast
Issued by NWS

Current Version | Previous Version | Text Only | Print | Product List | Glossary On
Versions: 1 2 3 4 5 6 7 8 9 10 11 12 13
000
FTUS46 KMTR 301100
TAFOAK
TAF
KOAK 301122Z 3012/3118 00000KT 6SM BR BKN007
     FM301830 28006KT 6SM BR FEW010
     FM302200 29009KT P6SM FEW012
     FM310400 33006KT P6SM FEW006
     FM311000 01004KT P6SM SCT006=

USA.gov is the U.S. government's official web portal to all federal, state and local government web resources and services.